createdAt,value
2022-08-08T00:00:52.464Z,12.72
2022-08-08T00:01:08.747Z,12.65
2022-08-08T00:02:15.314Z,12.67
2022-08-08T00:03:20.391Z,12.70
2022-08-08T00:04:02.670Z,12.75
2022-08-08T00:05:01.627Z,12.67
2022-08-08T00:06:03.893Z,12.67
2022-08-08T00:07:09.083Z,12.73
2022-08-08T00:08:02.595Z,12.76
2022-08-08T00:09:01.598Z,12.70
2022-08-08T00:10:01.584Z,12.65
2022-08-08T00:11:01.577Z,12.70
2022-08-08T00:12:06.892Z,12.79
2022-08-08T00:13:02.552Z,12.67
2022-08-08T00:14:14.814Z,12.70
2022-08-08T00:15:03.503Z,12.65
2022-08-08T00:16:02.566Z,12.55
2022-08-08T00:17:01.532Z,12.49
2022-08-08T00:18:03.825Z,12.39
2022-08-08T00:19:01.874Z,12.43
2022-08-08T00:20:01.510Z,12.49
2022-08-08T00:21:01.522Z,12.31
2022-08-08T00:22:01.490Z,12.36
2022-08-08T00:23:01.496Z,12.27
2022-08-08T00:24:01.471Z,12.37
2022-08-08T00:25:01.466Z,12.35
2022-08-08T00:26:01.490Z,12.39
2022-08-08T00:27:01.453Z,12.35
2022-08-08T00:28:01.450Z,12.28
2022-08-08T00:29:01.525Z,12.27
2022-08-08T00:30:01.424Z,12.22
2022-08-08T00:32:20.678Z,12.20
2022-08-08T00:32:20.679Z,12.06
2022-08-08T00:33:02.417Z,12.22
2022-08-08T00:34:18.357Z,12.10
2022-08-08T00:35:04.195Z,12.13
2022-08-08T00:36:01.383Z,12.10
2022-08-08T00:37:03.608Z,12.12
2022-08-08T00:38:03.030Z,12.03
2022-08-08T00:39:01.433Z,11.97
2022-08-08T00:41:10.898Z,12.06
2022-08-08T00:41:11.864Z,11.97
2022-08-08T00:42:07.890Z,12.02
2022-08-08T00:43:11.765Z,12.07
2022-08-08T00:44:02.344Z,12.09
2022-08-08T00:45:03.148Z,12.13
2022-08-08T00:46:01.325Z,12.15
2022-08-08T00:47:01.351Z,12.04
2022-08-08T00:48:05.276Z,12.04
2022-08-08T00:49:02.337Z,11.95
2022-08-08T00:50:01.276Z,12.07
2022-08-08T00:51:01.265Z,12.02
2022-08-08T00:52:01.298Z,12.03
2022-08-08T00:53:01.259Z,12.09
2022-08-08T00:54:04.299Z,12.06
2022-08-08T00:55:02.233Z,12.03
2022-08-08T00:56:01.371Z,12.07
2022-08-08T00:57:01.263Z,12.09
2022-08-08T00:58:01.213Z,12.09
2022-08-08T00:59:02.498Z,12.00
2022-08-08T01:00:01.198Z,12.15
2022-08-08T01:01:01.207Z,11.97
2022-08-08T01:02:01.600Z,11.94
2022-08-08T01:04:00.201Z,11.99
2022-08-08T01:04:04.602Z,11.97
2022-08-08T01:05:02.162Z,11.95
2022-08-08T01:06:02.416Z,11.90
2022-08-08T01:07:01.622Z,11.94
2022-08-08T01:08:01.143Z,11.83
2022-08-08T01:09:01.138Z,11.83
2022-08-08T01:10:06.198Z,11.84
2022-08-08T01:11:01.120Z,11.84
2022-08-08T01:12:01.147Z,11.81
2022-08-08T01:13:01.108Z,11.72
2022-08-08T01:14:01.095Z,11.77
2022-08-08T01:15:01.085Z,11.72
2022-08-08T01:16:01.257Z,11.66
2022-08-08T01:17:01.093Z,11.54
2022-08-08T01:18:02.499Z,11.51
2022-08-08T01:19:02.575Z,11.52
2022-08-08T01:20:03.686Z,11.41
2022-08-08T01:21:01.799Z,11.30
2022-08-08T01:22:12.408Z,11.33
2022-08-08T01:23:02.053Z,11.26
2022-08-08T01:24:05.769Z,11.23
2022-08-08T01:25:02.011Z,11.18
2022-08-08T01:26:02.071Z,11.15
2022-08-08T01:27:00.991Z,11.27
2022-08-08T01:28:02.231Z,11.32
2022-08-08T01:29:00.976Z,11.23
2022-08-08T01:30:33.710Z,11.30
2022-08-08T01:31:00.965Z,11.27
2022-08-08T01:32:13.196Z,11.36
2022-08-08T01:33:01.951Z,11.27
2022-08-08T01:34:01.951Z,11.33
2022-08-08T01:35:00.938Z,11.30
2022-08-08T01:36:01.292Z,11.37
2022-08-08T01:37:01.791Z,11.43
2022-08-08T01:38:00.938Z,11.40
2022-08-08T01:39:00.943Z,11.41
2022-08-08T01:40:00.985Z,11.35
2022-08-08T01:41:00.883Z,11.43
2022-08-08T01:42:01.249Z,11.40
2022-08-08T01:43:00.873Z,11.30
2022-08-08T01:44:00.875Z,11.05
2022-08-08T01:45:00.861Z,11.00
2022-08-08T01:46:00.850Z,11.04
2022-08-08T01:47:00.844Z,11.02
2022-08-08T01:48:14.034Z,10.99
2022-08-08T01:49:01.825Z,11.07
2022-08-08T01:50:00.817Z,11.04
2022-08-08T01:51:00.885Z,11.02
2022-08-08T01:52:42.376Z,11.05
2022-08-08T01:55:14.615Z,11.08
2022-08-08T01:55:16.845Z,11.02
2022-08-08T01:55:44.918Z,11.08
2022-08-08T01:56:28.199Z,11.05
2022-08-08T01:57:01.771Z,11.00
2022-08-08T01:58:11.381Z,10.89
2022-08-08T01:59:02.803Z,10.79
2022-08-08T02:00:01.566Z,10.79
2022-08-08T02:01:00.787Z,10.79
2022-08-08T02:02:03.284Z,10.81
2022-08-08T02:03:01.747Z,10.82
2022-08-08T02:04:01.891Z,10.84
2022-08-08T02:05:00.709Z,10.71
2022-08-08T02:06:00.682Z,10.72
2022-08-08T02:07:01.689Z,10.64
2022-08-08T02:08:00.707Z,10.74
2022-08-08T02:09:00.668Z,10.68
2022-08-08T02:10:03.726Z,10.75
2022-08-08T02:11:01.658Z,10.75
2022-08-08T02:12:00.915Z,10.71
2022-08-08T02:13:01.673Z,10.78
2022-08-08T02:14:00.637Z,10.78
2022-08-08T02:15:00.866Z,10.76
2022-08-08T02:16:00.650Z,10.72
2022-08-08T02:17:00.615Z,10.68
2022-08-08T02:18:00.646Z,10.82
2022-08-08T02:19:00.602Z,10.81
2022-08-08T02:20:09.821Z,10.81
2022-08-08T02:21:08.545Z,10.78
2022-08-08T02:22:01.578Z,10.84
2022-08-08T02:23:00.606Z,10.81
2022-08-08T02:24:00.563Z,10.86
2022-08-08T02:25:00.562Z,10.81
2022-08-08T02:26:01.548Z,10.76
2022-08-08T02:27:01.086Z,10.76
2022-08-08T02:28:00.903Z,10.69
2022-08-08T02:29:00.534Z,10.71
2022-08-08T02:30:00.510Z,10.68
2022-08-08T02:31:02.117Z,10.75
2022-08-08T02:32:01.249Z,10.79
2022-08-08T02:33:00.517Z,10.79
2022-08-08T02:34:09.310Z,10.74
2022-08-08T02:35:11.376Z,10.75
2022-08-08T02:36:05.110Z,10.74
2022-08-08T02:37:00.461Z,10.74
2022-08-08T02:38:00.480Z,10.60
2022-08-08T02:39:01.061Z,10.60
2022-08-08T02:40:01.436Z,10.64
2022-08-08T02:41:00.431Z,10.57
2022-08-08T02:42:05.656Z,10.64
2022-08-08T02:44:38.613Z,10.69
2022-08-08T02:44:39.101Z,10.60
2022-08-08T02:45:01.404Z,10.64
2022-08-08T02:46:00.394Z,10.69
2022-08-08T02:47:00.392Z,10.61
2022-08-08T02:48:00.413Z,10.60
2022-08-08T02:49:00.390Z,10.60
2022-08-08T02:50:00.363Z,10.68
2022-08-08T02:51:00.363Z,10.60
2022-08-08T02:52:04.373Z,10.57
2022-08-08T02:53:02.363Z,10.48
2022-08-08T02:54:00.488Z,10.60
2022-08-08T02:55:02.085Z,10.57
2022-08-08T02:56:00.334Z,10.46
2022-08-08T02:57:00.315Z,10.49
2022-08-08T02:58:00.299Z,10.59
2022-08-08T02:59:00.323Z,10.46
2022-08-08T03:00:15.743Z,10.53
2022-08-08T03:01:01.322Z,10.53
2022-08-08T03:02:00.291Z,10.54
2022-08-08T03:03:00.321Z,10.46
2022-08-08T03:05:03.186Z,10.38
2022-08-08T03:05:08.778Z,10.37
2022-08-08T03:06:01.247Z,10.33
2022-08-08T03:07:00.230Z,10.30
2022-08-08T03:08:00.228Z,10.37
2022-08-08T03:09:00.245Z,10.33
2022-08-08T03:10:00.239Z,10.37
2022-08-08T03:11:00.204Z,10.30
2022-08-08T03:12:02.877Z,10.38
2022-08-08T03:13:33.587Z,10.33
2022-08-08T03:15:58.344Z,10.26
2022-08-08T03:16:03.865Z,10.35
2022-08-08T03:16:05.175Z,10.30
2022-08-08T03:17:02.165Z,10.34
2022-08-08T03:18:06.544Z,10.23
2022-08-08T03:19:01.140Z,10.17
2022-08-08T03:20:00.152Z,10.01
2022-08-08T03:21:00.141Z,10.04
2022-08-08T03:22:00.253Z,10.09
2022-08-08T03:23:00.623Z,10.07
2022-08-08T03:24:01.939Z,10.09
2022-08-08T03:25:00.148Z,10.09
2022-08-08T03:26:00.113Z,10.02
2022-08-08T03:27:00.090Z,9.99
2022-08-08T03:28:00.110Z,10.16
2022-08-08T03:29:00.081Z,9.99
2022-08-08T03:30:00.071Z,9.97
2022-08-08T03:31:13.545Z,9.98
2022-08-08T03:32:06.149Z,9.92
2022-08-08T03:33:03.732Z,9.86
2022-08-08T03:34:02.114Z,9.87
2022-08-08T03:35:00.026Z,9.86
2022-08-08T03:36:00.020Z,9.83
2022-08-08T03:37:00.026Z,9.91
2022-08-08T03:38:53.778Z,9.94
2022-08-08T03:39:14.790Z,9.86
2022-08-08T03:40:02.325Z,9.89
2022-08-08T03:41:01.084Z,9.83
2022-08-08T03:42:27.228Z,9.94
2022-08-08T03:43:16.857Z,9.97
2022-08-08T03:44:00.976Z,9.92
2022-08-08T03:44:59.948Z,9.98
2022-08-08T03:46:05.821Z,9.89
2022-08-08T03:47:07.154Z,9.92
2022-08-08T03:48:00.919Z,9.97
2022-08-08T03:49:30.317Z,9.92
2022-08-08T03:50:02.390Z,9.95
2022-08-08T03:51:00.902Z,10.02
2022-08-08T03:51:59.893Z,10.05
2022-08-08T03:52:59.878Z,10.01
2022-08-08T03:53:59.899Z,9.87
2022-08-08T03:55:09.919Z,9.86
2022-08-08T03:56:04.444Z,9.82
2022-08-08T03:56:59.851Z,9.84
2022-08-08T03:58:33.742Z,9.87
2022-08-08T03:59:00.884Z,9.87
2022-08-08T04:00:11.261Z,9.92
2022-08-08T04:01:20.769Z,9.92
2022-08-08T04:02:20.652Z,9.83
2022-08-08T04:03:01.544Z,9.87
2022-08-08T04:04:02.006Z,9.87
2022-08-08T04:05:00.788Z,9.79
2022-08-08T04:05:59.784Z,9.86
2022-08-08T04:07:00.996Z,9.84
2022-08-08T04:08:00.731Z,9.97
2022-08-08T04:09:10.643Z,9.91
2022-08-08T04:10:05.029Z,9.91
2022-08-08T04:11:00.744Z,9.98
2022-08-08T04:12:00.759Z,9.94
2022-08-08T04:12:59.729Z,9.95
2022-08-08T04:14:33.056Z,9.89
2022-08-08T04:15:00.719Z,9.91
2022-08-08T04:16:05.517Z,9.92
2022-08-08T04:17:00.692Z,9.84
2022-08-08T04:17:59.724Z,9.89
2022-08-08T04:19:00.710Z,9.84
2022-08-08T04:20:01.980Z,9.89
2022-08-08T04:21:00.863Z,9.86
2022-08-08T04:21:59.660Z,9.84
2022-08-08T04:22:59.651Z,9.65
2022-08-08T04:24:11.856Z,9.64
2022-08-08T04:25:02.254Z,9.61
2022-08-08T04:26:01.325Z,9.54
2022-08-08T04:27:00.761Z,9.64
2022-08-08T04:28:35.505Z,9.56
2022-08-08T04:29:00.648Z,9.55
2022-08-08T04:30:01.002Z,9.65
2022-08-08T04:31:01.137Z,9.65
2022-08-08T04:32:00.589Z,9.77
2022-08-08T04:33:00.588Z,9.62
2022-08-08T04:33:59.579Z,9.86
2022-08-08T04:34:59.625Z,9.95
2022-08-08T04:35:59.580Z,10.17
2022-08-08T04:36:59.545Z,10.33
2022-08-08T04:37:59.549Z,10.57
2022-08-08T04:39:47.697Z,10.86
2022-08-08T04:40:05.182Z,11.15
2022-08-08T04:41:00.587Z,11.50
2022-08-08T04:41:59.509Z,11.69
2022-08-08T04:43:01.074Z,12.03
2022-08-08T04:43:59.524Z,12.39
2022-08-08T04:44:59.487Z,12.42
2022-08-08T04:45:59.479Z,12.65
2022-08-08T04:46:59.466Z,12.97
2022-08-08T04:48:00.478Z,13.25
2022-08-08T04:48:59.485Z,13.47
2022-08-08T04:50:04.563Z,13.89
2022-08-08T04:51:00.436Z,14.44
2022-08-08T04:51:59.431Z,14.81
2022-08-08T04:53:04.732Z,14.99
2022-08-08T04:54:37.960Z,15.40
2022-08-08T04:55:00.409Z,15.67
2022-08-08T04:55:59.635Z,15.77
2022-08-08T04:56:59.404Z,15.91
2022-08-08T04:57:59.401Z,15.98
2022-08-08T04:58:59.414Z,15.67
2022-08-08T04:59:59.641Z,15.59
2022-08-08T05:00:59.354Z,15.11
2022-08-08T05:02:00.803Z,14.78
2022-08-08T05:02:59.349Z,15.00
2022-08-08T05:04:10.696Z,15.22
2022-08-08T05:05:00.733Z,14.84
2022-08-08T05:05:59.322Z,14.62
2022-08-08T05:06:59.321Z,14.86
2022-08-08T05:07:59.311Z,15.39
2022-08-08T05:09:02.855Z,15.70
2022-08-08T05:10:00.294Z,15.65
2022-08-08T05:10:59.287Z,15.58
2022-08-08T05:11:59.278Z,15.54
2022-08-08T05:13:01.657Z,14.99
2022-08-08T05:14:01.426Z,14.88
2022-08-08T05:14:59.258Z,15.46
2022-08-08T05:16:51.360Z,15.52
2022-08-08T05:17:01.584Z,15.59
2022-08-08T05:17:59.230Z,15.72
2022-08-08T05:18:59.251Z,15.84
2022-08-08T05:20:12.851Z,15.91
2022-08-08T05:21:00.212Z,15.90
2022-08-08T05:22:00.731Z,15.67
2022-08-08T05:22:59.194Z,15.61
2022-08-08T05:24:04.442Z,15.68
2022-08-08T05:25:00.185Z,15.76
2022-08-08T05:26:00.379Z,16.50
2022-08-08T05:27:00.168Z,16.93
2022-08-08T05:27:59.161Z,16.86
2022-08-08T05:29:06.199Z,16.87
2022-08-08T05:30:00.170Z,17.14
2022-08-08T05:31:08.668Z,16.75
2022-08-08T05:32:05.493Z,16.57
2022-08-08T05:33:00.109Z,17.11
2022-08-08T05:33:59.111Z,17.16
2022-08-08T05:34:59.151Z,17.48
2022-08-08T05:35:59.096Z,18.16
2022-08-08T05:36:59.081Z,18.77
2022-08-08T05:37:59.076Z,19.16
2022-08-08T05:38:59.104Z,19.26
2022-08-08T05:39:59.137Z,19.22
2022-08-08T05:40:59.135Z,19.40
2022-08-08T05:41:59.059Z,19.40
2022-08-08T05:42:59.045Z,17.52
2022-08-08T05:44:03.804Z,16.68
2022-08-08T05:45:00.744Z,17.29
2022-08-08T05:46:03.714Z,18.03
2022-08-08T05:47:02.716Z,17.57
2022-08-08T05:48:00.717Z,17.08
2022-08-08T05:49:00.044Z,16.60
2022-08-08T05:49:58.997Z,17.02
2022-08-08T05:51:14.523Z,17.04
2022-08-08T05:51:59.968Z,17.19
2022-08-08T05:52:58.972Z,16.39
2022-08-08T05:54:27.066Z,15.64
2022-08-08T05:55:04.421Z,15.24
2022-08-08T05:56:11.070Z,14.60
2022-08-08T05:56:59.929Z,14.66
2022-08-08T05:58:06.074Z,14.59
2022-08-08T05:59:03.949Z,14.70
2022-08-08T06:00:22.461Z,14.04
2022-08-08T06:00:59.894Z,13.93
2022-08-08T06:01:59.839Z,14.14
2022-08-08T06:02:58.928Z,14.70
2022-08-08T06:03:58.921Z,14.62
2022-08-08T06:04:58.897Z,14.68
2022-08-08T06:05:59.517Z,14.63
2022-08-08T06:07:00.502Z,14.66
2022-08-08T06:08:02.798Z,14.69
2022-08-08T06:09:00.362Z,15.00
2022-08-08T06:10:02.288Z,15.04
2022-08-08T06:10:58.829Z,15.31
2022-08-08T06:11:58.820Z,14.94
2022-08-08T06:13:01.673Z,14.88
2022-08-08T06:13:58.803Z,15.17
2022-08-08T06:14:58.821Z,15.14
2022-08-08T06:15:58.795Z,14.82
2022-08-08T06:16:58.786Z,14.25
2022-08-08T06:18:21.098Z,13.96
2022-08-08T06:18:59.765Z,13.96
2022-08-08T06:19:58.779Z,14.25
2022-08-08T06:20:58.753Z,14.25
2022-08-08T06:21:59.907Z,14.12
2022-08-08T06:22:58.733Z,14.05
2022-08-08T06:24:03.403Z,14.11
2022-08-08T06:24:59.739Z,14.08
2022-08-08T06:26:43.395Z,14.32
2022-08-08T06:26:59.704Z,14.33
2022-08-08T06:27:58.727Z,14.33
2022-08-08T06:29:02.196Z,14.62
2022-08-08T06:30:00.836Z,14.70
2022-08-08T06:30:58.665Z,15.00
2022-08-08T06:32:10.377Z,15.28
2022-08-08T06:33:01.340Z,15.64
2022-08-08T06:34:27.038Z,15.62
2022-08-08T06:36:06.280Z,15.40
2022-08-08T06:36:07.669Z,15.37
2022-08-08T06:37:00.165Z,15.33
2022-08-08T06:37:58.618Z,15.22
2022-08-08T06:38:58.611Z,15.03
2022-08-08T06:40:00.712Z,15.03
2022-08-08T06:40:58.679Z,15.25
2022-08-08T06:41:58.586Z,15.61
2022-08-08T06:42:58.615Z,15.84
2022-08-08T06:43:59.570Z,16.16
2022-08-08T06:44:58.768Z,15.98
2022-08-08T06:45:58.551Z,16.08
2022-08-08T06:46:58.547Z,16.05
2022-08-08T06:48:01.788Z,15.86
2022-08-08T06:48:58.529Z,15.97
2022-08-08T06:49:58.577Z,16.46
2022-08-08T06:50:58.531Z,16.46
2022-08-08T06:51:58.513Z,16.31
2022-08-08T06:52:58.499Z,16.38
2022-08-08T06:54:00.832Z,16.32
2022-08-08T06:54:58.543Z,16.28
2022-08-08T06:56:02.038Z,16.26
2022-08-08T06:56:58.472Z,16.01
2022-08-08T06:58:02.108Z,16.26
2022-08-08T06:59:00.450Z,16.09
2022-08-08T07:00:10.127Z,16.13
2022-08-08T07:00:59.441Z,16.32
2022-08-08T07:02:17.870Z,16.60
2022-08-08T07:02:59.511Z,16.78
2022-08-08T07:04:37.929Z,17.06
2022-08-08T07:05:00.507Z,17.30
2022-08-08T07:06:02.076Z,17.67
2022-08-08T07:06:58.416Z,17.85
2022-08-08T07:07:58.393Z,17.71
2022-08-08T07:08:58.386Z,17.83
2022-08-08T07:10:00.304Z,17.80
2022-08-08T07:10:58.364Z,18.08
2022-08-08T07:11:58.355Z,18.35
2022-08-08T07:12:58.345Z,18.68
2022-08-08T07:14:00.931Z,18.96
2022-08-08T07:14:58.365Z,19.12
2022-08-08T07:16:04.370Z,19.04
2022-08-08T07:16:59.317Z,19.11
2022-08-08T07:18:02.076Z,19.30
2022-08-08T07:18:59.299Z,19.07
2022-08-08T07:19:59.844Z,18.93
2022-08-08T07:20:58.405Z,18.73
2022-08-08T07:22:05.115Z,18.77
2022-08-08T07:23:00.271Z,18.95
2022-08-08T07:24:03.734Z,19.07
2022-08-08T07:24:59.421Z,19.12
2022-08-08T07:25:58.267Z,19.00
2022-08-08T07:26:58.378Z,19.02
2022-08-08T07:28:07.845Z,18.90
2022-08-08T07:28:59.225Z,18.71
2022-08-08T07:30:28.115Z,18.92
2022-08-08T07:30:58.209Z,18.98
2022-08-08T07:31:58.208Z,18.81
2022-08-08T07:32:59.458Z,18.96
2022-08-08T07:33:59.361Z,19.09
2022-08-08T07:35:01.131Z,19.48
2022-08-08T07:35:58.186Z,19.59
2022-08-08T07:36:58.168Z,19.54
2022-08-08T07:38:09.789Z,19.16
2022-08-08T07:38:59.157Z,19.39
2022-08-08T07:39:59.902Z,19.18
2022-08-08T07:40:58.609Z,19.14
2022-08-08T07:42:04.163Z,19.41
2022-08-08T07:42:59.488Z,19.79
2022-08-08T07:43:58.137Z,19.77
2022-08-08T07:44:58.143Z,19.52
2022-08-08T07:46:23.206Z,19.67
2022-08-08T07:46:59.115Z,19.94
2022-08-08T07:47:59.079Z,20.28
2022-08-08T07:48:58.077Z,20.16
2022-08-08T07:49:58.550Z,20.52
2022-08-08T07:50:58.086Z,20.69
2022-08-08T07:51:58.078Z,20.78
2022-08-08T07:52:58.047Z,20.78
2022-08-08T07:54:02.882Z,20.96
2022-08-08T07:54:59.031Z,20.90
2022-08-08T07:55:58.057Z,20.48
2022-08-08T07:56:58.036Z,20.59
2022-08-08T07:57:58.004Z,20.87
2022-08-08T07:58:58.003Z,20.67
2022-08-08T07:59:57.992Z,20.51
2022-08-08T08:00:58.083Z,20.48
2022-08-08T08:02:37.035Z,20.19
2022-08-08T08:02:58.973Z,20.60
2022-08-08T08:03:57.964Z,20.84
2022-08-08T08:04:57.959Z,20.88
2022-08-08T08:05:57.986Z,21.02
2022-08-08T08:06:57.928Z,20.93
2022-08-08T08:07:59.225Z,20.93
2022-08-08T08:08:57.926Z,20.74
2022-08-08T08:09:57.912Z,20.77
2022-08-08T08:10:57.930Z,20.58
2022-08-08T08:11:57.916Z,20.52
2022-08-08T08:12:57.900Z,20.67
2022-08-08T08:14:07.921Z,20.69
2022-08-08T08:14:58.874Z,20.87
2022-08-08T08:15:57.895Z,21.29
2022-08-08T08:16:57.857Z,21.33
2022-08-08T08:17:57.923Z,21.29
2022-08-08T08:18:57.844Z,21.09
2022-08-08T08:19:57.835Z,21.20
2022-08-08T08:20:57.856Z,21.18
2022-08-08T08:22:00.806Z,21.29
2022-08-08T08:22:57.816Z,21.18
2022-08-08T08:24:02.686Z,21.22
2022-08-08T08:24:58.795Z,21.36
2022-08-08T08:25:58.836Z,21.40
2022-08-08T08:26:58.785Z,21.42
2022-08-08T08:27:57.776Z,21.24
2022-08-08T08:28:57.769Z,21.37
2022-08-08T08:29:57.764Z,21.52
2022-08-08T08:30:57.787Z,21.72
2022-08-08T08:31:59.165Z,21.99
2022-08-08T08:32:59.244Z,22.13
2022-08-08T08:33:57.734Z,22.00
2022-08-08T08:34:57.728Z,22.02
2022-08-08T08:36:20.454Z,21.93
2022-08-08T08:36:58.716Z,22.07
2022-08-08T08:38:15.650Z,21.55
2022-08-08T08:38:59.699Z,21.58
2022-08-08T08:40:01.774Z,21.91
2022-08-08T08:40:58.710Z,22.23
2022-08-08T08:41:57.682Z,22.33
2022-08-08T08:42:57.672Z,22.22
2022-08-08T08:44:08.666Z,22.25
2022-08-08T08:44:58.760Z,22.29
2022-08-08T08:45:57.808Z,22.44
2022-08-08T08:46:58.905Z,22.45
2022-08-08T08:47:58.519Z,22.44
2022-08-08T08:48:57.626Z,22.44
2022-08-08T08:49:57.614Z,22.38
2022-08-08T08:50:57.636Z,22.47
2022-08-08T08:51:57.601Z,22.47
2022-08-08T08:53:00.150Z,22.85
2022-08-08T08:54:00.908Z,22.72
2022-08-08T08:54:57.583Z,23.02
2022-08-08T08:56:01.918Z,22.78
2022-08-08T08:56:58.573Z,22.90
2022-08-08T08:57:57.568Z,22.70
2022-08-08T08:58:58.053Z,22.59
2022-08-08T09:00:00.294Z,22.72
2022-08-08T09:01:08.512Z,22.75
2022-08-08T09:01:59.594Z,22.75
2022-08-08T09:02:57.528Z,22.91
2022-08-08T09:03:57.519Z,22.83
2022-08-08T09:04:57.534Z,22.81
2022-08-08T09:05:57.532Z,22.83
2022-08-08T09:06:57.498Z,22.99
2022-08-08T09:08:12.425Z,22.81
2022-08-08T09:08:58.478Z,23.20
2022-08-08T09:09:58.342Z,23.24
2022-08-08T09:10:57.493Z,23.28
2022-08-08T09:12:01.573Z,23.12
2022-08-08T09:12:58.445Z,23.47
2022-08-08T09:13:57.446Z,23.40
2022-08-08T09:14:57.432Z,23.39
2022-08-08T09:16:03.985Z,23.54
2022-08-08T09:16:58.439Z,23.43
2022-08-08T09:17:57.633Z,23.37
2022-08-08T09:18:57.404Z,23.65
2022-08-08T09:21:56.515Z,24.11
2022-08-08T09:21:56.922Z,23.81
2022-08-08T09:22:06.136Z,24.02
2022-08-08T09:22:59.360Z,24.01
2022-08-08T09:23:58.375Z,23.88
2022-08-08T09:24:58.437Z,23.92
2022-08-08T09:26:02.067Z,23.55
2022-08-08T09:26:58.369Z,23.69
2022-08-08T09:27:58.551Z,24.03
2022-08-08T09:28:58.326Z,24.17
2022-08-08T09:29:57.323Z,24.24
2022-08-08T09:30:57.323Z,24.18
2022-08-08T09:31:57.720Z,24.28
2022-08-08T09:33:12.947Z,24.30
2022-08-08T09:34:30.221Z,24.32
2022-08-08T09:34:58.280Z,24.63
2022-08-08T09:35:57.274Z,24.16
2022-08-08T09:37:39.570Z,23.91
2022-08-08T09:38:02.355Z,24.26
2022-08-08T09:38:58.063Z,24.30
2022-08-08T09:39:57.283Z,24.40
2022-08-08T09:40:57.749Z,24.77
2022-08-08T09:42:20.764Z,25.43
2022-08-08T09:42:58.235Z,25.50
2022-08-08T09:44:11.404Z,25.06
2022-08-08T09:44:58.210Z,24.89
2022-08-08T09:46:02.720Z,24.89
2022-08-08T09:47:25.350Z,24.91
2022-08-08T09:48:09.847Z,24.85
2022-08-08T09:48:58.181Z,24.63
2022-08-08T09:50:03.459Z,24.50
2022-08-08T09:50:58.159Z,24.28
2022-08-08T09:52:07.035Z,24.48
2022-08-08T09:53:02.186Z,24.63
2022-08-08T09:54:09.569Z,24.74
2022-08-08T09:54:59.129Z,24.54
2022-08-08T09:56:05.969Z,25.04
2022-08-08T09:56:59.138Z,24.77
2022-08-08T09:57:57.113Z,24.61
2022-08-08T09:58:57.727Z,24.84
2022-08-08T10:00:59.204Z,24.45
2022-08-08T10:01:59.001Z,24.65
2022-08-08T10:02:58.073Z,24.78
2022-08-08T10:03:57.345Z,25.17
2022-08-08T10:04:57.086Z,25.63
2022-08-08T10:05:57.106Z,25.58
2022-08-08T10:06:57.071Z,25.33
2022-08-08T10:07:59.867Z,25.41
2022-08-08T10:08:57.323Z,25.90
2022-08-08T10:10:00.065Z,26.23
2022-08-08T10:10:57.015Z,26.22
2022-08-08T10:12:23.169Z,26.37
2022-08-08T10:13:14.135Z,25.98
2022-08-08T10:14:00.897Z,25.62
2022-08-08T10:15:01.197Z,25.32
2022-08-08T10:16:03.517Z,25.32
2022-08-08T10:16:59.822Z,25.29
2022-08-08T10:18:10.252Z,25.43
2022-08-08T10:19:00.834Z,25.68
2022-08-08T10:20:01.879Z,26.00
2022-08-08T10:21:03.388Z,26.31
2022-08-08T10:21:58.813Z,26.55
2022-08-08T10:22:58.827Z,26.92
2022-08-08T10:23:59.686Z,26.48
2022-08-08T10:24:59.991Z,26.44
2022-08-08T10:25:58.336Z,26.51
2022-08-08T10:27:00.150Z,26.63
2022-08-08T10:27:59.529Z,26.68
2022-08-08T10:28:59.320Z,26.89
2022-08-08T10:29:59.818Z,26.92
2022-08-08T10:31:01.250Z,26.90
2022-08-08T10:31:57.891Z,27.05
2022-08-08T10:32:56.850Z,27.29
2022-08-08T10:34:20.249Z,27.45
2022-08-08T10:35:01.239Z,27.63
2022-08-08T10:36:07.971Z,27.63
2022-08-08T10:36:59.512Z,27.59
2022-08-08T10:37:56.818Z,27.37
2022-08-08T10:38:56.803Z,26.92
2022-08-08T10:39:56.829Z,26.75
2022-08-08T10:40:56.795Z,26.63
2022-08-08T10:42:12.965Z,26.95
2022-08-08T10:42:57.777Z,27.08
2022-08-08T10:43:56.775Z,27.07
2022-08-08T10:44:56.767Z,26.78
2022-08-08T10:45:58.911Z,26.53
2022-08-08T10:46:57.781Z,26.68
2022-08-08T10:47:56.755Z,26.97
2022-08-08T10:48:58.824Z,27.11
2022-08-08T10:50:00.768Z,27.15
2022-08-08T10:50:57.721Z,27.22
2022-08-08T10:51:56.713Z,27.32
2022-08-08T10:52:56.737Z,27.35
2022-08-08T10:53:59.533Z,27.55
2022-08-08T10:54:56.730Z,27.68
2022-08-08T10:55:56.699Z,28.02
2022-08-08T10:56:56.679Z,28.14
2022-08-08T10:57:56.726Z,28.29
2022-08-08T10:58:56.682Z,28.44
2022-08-08T10:59:56.666Z,28.63
2022-08-08T11:01:03.259Z,28.75
2022-08-08T11:01:57.698Z,28.54
2022-08-08T11:02:56.666Z,27.92
2022-08-08T11:04:02.451Z,27.33
2022-08-08T11:04:57.627Z,27.36
2022-08-08T11:06:00.661Z,27.33
2022-08-08T11:06:56.627Z,27.27
2022-08-08T11:08:38.804Z,27.44
2022-08-08T11:08:57.589Z,27.54
2022-08-08T11:09:56.585Z,27.54
2022-08-08T11:10:56.584Z,27.45
2022-08-08T11:12:05.960Z,26.93
2022-08-08T11:13:18.634Z,26.00
2022-08-08T11:14:00.757Z,25.98
2022-08-08T11:14:56.549Z,25.91
2022-08-08T11:16:07.434Z,25.73
2022-08-08T11:16:57.532Z,25.81
2022-08-08T11:17:58.642Z,26.07
2022-08-08T11:18:57.518Z,26.34
2022-08-08T11:19:56.514Z,26.56
2022-08-08T11:20:57.464Z,26.63
2022-08-08T11:21:56.542Z,26.84
2022-08-08T11:22:56.527Z,27.12
2022-08-08T11:24:03.006Z,27.33
2022-08-08T11:24:57.477Z,27.22
2022-08-08T11:25:57.365Z,26.74
2022-08-08T11:26:57.455Z,26.33
2022-08-08T11:27:56.509Z,25.91
2022-08-08T11:28:56.462Z,25.87
2022-08-08T11:30:19.459Z,25.80
2022-08-08T11:30:57.434Z,25.78
2022-08-08T11:31:56.439Z,25.84
2022-08-08T11:32:56.466Z,26.00
2022-08-08T11:34:01.887Z,26.03
2022-08-08T11:35:27.646Z,26.44
2022-08-08T11:35:58.398Z,26.58
2022-08-08T11:36:58.852Z,26.06
2022-08-08T11:38:35.633Z,26.34
2022-08-08T11:38:57.393Z,26.48
2022-08-08T11:39:57.400Z,26.55
2022-08-08T11:40:56.412Z,26.28
2022-08-08T11:41:56.385Z,25.98
2022-08-08T11:42:56.376Z,25.98
2022-08-08T11:43:57.787Z,26.18
2022-08-08T11:44:56.357Z,26.43
2022-08-08T11:46:17.256Z,26.44
2022-08-08T11:46:58.328Z,26.44
2022-08-08T11:48:04.682Z,26.48
2022-08-08T11:48:57.304Z,26.34
2022-08-08T11:49:56.299Z,26.51
2022-08-08T11:50:56.305Z,26.65
2022-08-08T11:51:56.287Z,26.31
2022-08-08T11:52:56.317Z,26.36
2022-08-08T11:54:01.081Z,26.44
2022-08-08T11:54:57.272Z,26.62
2022-08-08T11:55:56.253Z,26.90
2022-08-08T11:56:57.799Z,27.12
2022-08-08T11:58:00.040Z,27.11
2022-08-08T11:58:58.237Z,27.14
2022-08-08T12:00:02.173Z,27.64
2022-08-08T12:00:57.211Z,27.93
2022-08-08T12:02:15.021Z,28.00
2022-08-08T12:02:58.288Z,27.90
2022-08-08T12:03:59.623Z,27.95
2022-08-08T12:04:57.182Z,28.02
2022-08-08T12:05:56.178Z,28.02
2022-08-08T12:06:56.165Z,27.68
2022-08-08T12:07:56.862Z,27.20
2022-08-08T12:08:56.152Z,27.12
2022-08-08T12:09:59.644Z,27.05
2022-08-08T12:10:57.148Z,27.21
2022-08-08T12:11:56.132Z,27.07
2022-08-08T12:12:56.148Z,26.97
2022-08-08T12:14:03.724Z,27.00
2022-08-08T12:14:57.124Z,26.85
2022-08-08T12:15:56.132Z,26.73
2022-08-08T12:16:56.102Z,26.78
2022-08-08T12:17:56.151Z,26.74
2022-08-08T12:18:56.108Z,26.70
2022-08-08T12:19:56.092Z,26.44
2022-08-08T12:20:56.651Z,26.10
2022-08-08T12:21:59.748Z,26.29
2022-08-08T12:22:57.258Z,26.71
2022-08-08T12:23:59.545Z,26.65
2022-08-08T12:24:56.664Z,26.43
2022-08-08T12:25:56.915Z,26.53
2022-08-08T12:26:57.090Z,26.55
2022-08-08T12:27:56.039Z,26.51
2022-08-08T12:28:56.014Z,26.48
2022-08-08T12:29:56.003Z,26.29
2022-08-08T12:30:56.025Z,26.53
2022-08-08T12:31:55.991Z,26.38
2022-08-08T12:32:56.002Z,26.51
2022-08-08T12:34:02.851Z,26.52
2022-08-08T12:35:01.376Z,26.40
2022-08-08T12:35:56.947Z,26.84
2022-08-08T12:36:55.951Z,27.11
2022-08-08T12:38:01.887Z,27.55
2022-08-08T12:38:56.926Z,27.90
2022-08-08T12:40:00.923Z,28.01
2022-08-08T12:40:59.243Z,28.19
2022-08-08T12:42:01.927Z,28.23
2022-08-08T12:42:56.929Z,28.23
2022-08-08T12:43:59.780Z,28.23
2022-08-08T12:44:55.880Z,28.23
2022-08-08T12:46:02.695Z,27.86
2022-08-08T12:47:00.153Z,27.52
2022-08-08T12:48:04.323Z,26.84
2022-08-08T12:49:57.846Z,26.77
2022-08-08T12:50:57.667Z,26.63
2022-08-08T12:52:00.216Z,26.68
2022-08-08T12:52:56.823Z,26.75
2022-08-08T12:53:58.814Z,26.83
2022-08-08T12:54:55.829Z,27.08
2022-08-08T12:56:08.804Z,27.17